createdAt,value
2017-05-17T00:01:36.745Z,10.92
2017-05-17T00:04:04.211Z,11.22
2017-05-17T00:06:31.658Z,11.04
2017-05-17T00:08:59.073Z,11.64
2017-05-17T00:11:28.150Z,10.90
2017-05-17T00:13:56.467Z,10.38
2017-05-17T00:16:24.128Z,10.14
2017-05-17T00:18:51.756Z,11.14
2017-05-17T00:21:20.088Z,10.48
2017-05-17T00:23:48.236Z,10.42
2017-05-17T00:26:15.645Z,10.02
2017-05-17T00:28:43.052Z,10.44
2017-05-17T00:31:10.507Z,10.68
2017-05-17T00:33:37.924Z,11.06
2017-05-17T00:36:17.380Z,9.78
2017-05-17T00:39:02.943Z,10.76
2017-05-17T00:41:48.653Z,11.14
2017-05-17T00:44:34.286Z,10.70
2017-05-17T00:47:19.878Z,10.88
2017-05-17T00:50:05.288Z,10.54
2017-05-17T00:52:38.728Z,11.06
2017-05-17T00:55:06.173Z,10.48
2017-05-17T00:57:33.862Z,10.60
2017-05-17T01:00:01.306Z,10.12
2017-05-17T01:02:28.966Z,10.30
2017-05-17T01:04:57.348Z,10.48
2017-05-17T01:07:24.834Z,11.52
2017-05-17T01:09:52.569Z,10.90
2017-05-17T01:12:20.220Z,11.00
2017-05-17T01:14:47.643Z,10.74
2017-05-17T01:17:15.096Z,11.46
2017-05-17T01:19:42.520Z,10.54
2017-05-17T01:22:10.800Z,11.06
2017-05-17T01:24:39.014Z,10.94
2017-05-17T01:27:06.416Z,11.62
2017-05-17T01:29:33.832Z,11.76
2017-05-17T01:32:01.360Z,10.40
2017-05-17T01:34:28.754Z,11.72
2017-05-17T01:36:56.138Z,12.02
2017-05-17T01:39:23.590Z,10.80
2017-05-17T01:41:51.225Z,11.88
2017-05-17T01:44:18.866Z,11.70
2017-05-17T01:46:46.910Z,13.20
2017-05-17T01:49:14.371Z,11.32
2017-05-17T01:51:41.790Z,11.70
2017-05-17T01:54:09.359Z,12.18
2017-05-17T01:56:37.129Z,11.80
2017-05-17T01:59:04.555Z,12.34
2017-05-17T02:01:31.964Z,11.58
2017-05-17T02:03:59.505Z,12.04
2017-05-17T02:06:27.807Z,11.98
2017-05-17T02:08:56.368Z,13.24
2017-05-17T02:11:23.829Z,12.62
2017-05-17T02:13:51.982Z,11.38
2017-05-17T02:16:19.412Z,11.24
2017-05-17T02:18:46.822Z,11.54
2017-05-17T02:21:14.222Z,11.82
2017-05-17T02:23:41.736Z,11.86
2017-05-17T02:26:09.537Z,11.22
2017-05-17T02:28:36.936Z,12.04
2017-05-17T02:31:05.133Z,10.68
2017-05-17T02:33:32.525Z,11.54
2017-05-17T02:35:59.935Z,10.92
2017-05-17T02:38:28.107Z,12.00
2017-05-17T02:40:56.252Z,13.06
2017-05-17T02:43:23.820Z,10.52
2017-05-17T02:45:51.241Z,11.76
2017-05-17T02:48:18.638Z,11.94
2017-05-17T02:50:46.806Z,12.10
2017-05-17T02:53:15.028Z,12.78
2017-05-17T02:55:42.418Z,11.76
2017-05-17T02:58:10.719Z,11.52
2017-05-17T03:00:38.181Z,12.18
2017-05-17T03:03:06.330Z,11.70
2017-05-17T03:05:33.949Z,11.62
2017-05-17T03:08:01.632Z,12.18
2017-05-17T03:10:29.006Z,12.26
2017-05-17T03:12:57.062Z,12.28
2017-05-17T03:15:24.494Z,12.04
2017-05-17T03:17:52.901Z,11.02
2017-05-17T03:20:20.430Z,11.88
2017-05-17T03:22:48.159Z,11.14
2017-05-17T03:25:16.306Z,11.56
2017-05-17T03:27:43.695Z,13.84
2017-05-17T03:30:11.295Z,14.16
2017-05-17T03:32:38.699Z,12.64
2017-05-17T03:35:06.273Z,10.76
2017-05-17T03:37:33.991Z,11.28
2017-05-17T03:40:01.413Z,11.78
2017-05-17T03:42:29.286Z,11.26
2017-05-17T03:44:56.735Z,11.08
2017-05-17T03:47:24.133Z,11.78
2017-05-17T03:49:52.303Z,62.80
2017-05-17T03:52:20.060Z,20.70
2017-05-17T03:54:47.525Z,12.14
2017-05-17T03:57:15.198Z,12.72
2017-05-17T03:59:42.696Z,11.64
2017-05-17T04:02:10.506Z,13.14
2017-05-17T04:04:38.684Z,12.14
2017-05-17T04:07:07.122Z,12.20
2017-05-17T04:09:35.156Z,11.64
2017-05-17T04:12:03.354Z,11.76
2017-05-17T04:14:30.885Z,11.70
2017-05-17T04:16:59.058Z,13.76
2017-05-17T04:19:26.530Z,12.72
2017-05-17T04:21:54.694Z,13.10
2017-05-17T04:24:22.555Z,13.42
2017-05-17T04:26:50.681Z,12.62
2017-05-17T04:29:18.362Z,13.60
2017-05-17T04:31:45.776Z,13.88
2017-05-17T04:34:13.367Z,14.28
2017-05-17T04:36:40.837Z,13.78
2017-05-17T04:39:08.525Z,13.22
2017-05-17T04:41:36.673Z,12.64
2017-05-17T04:44:04.950Z,12.12
2017-05-17T04:46:32.585Z,13.04
2017-05-17T04:48:59.964Z,13.20
2017-05-17T04:51:27.396Z,12.60
2017-05-17T04:53:54.845Z,13.66
2017-05-17T04:56:26.357Z,13.74
2017-05-17T04:58:53.954Z,13.82
2017-05-17T05:01:21.878Z,13.30
2017-05-17T05:03:50.669Z,13.72
2017-05-17T05:06:19.103Z,12.60
2017-05-17T05:08:48.516Z,12.88
2017-05-17T05:11:16.240Z,15.12
2017-05-17T05:13:44.047Z,14.92
2017-05-17T05:16:11.814Z,13.24
2017-05-17T05:18:39.988Z,13.98
2017-05-17T05:21:07.420Z,15.88
2017-05-17T05:23:34.822Z,13.98
2017-05-17T05:26:02.963Z,13.50
2017-05-17T05:28:30.366Z,13.02
2017-05-17T05:30:58.571Z,13.48
2017-05-17T05:33:26.875Z,13.38
2017-05-17T05:35:54.285Z,12.98
2017-05-17T05:38:21.898Z,13.48
2017-05-17T05:40:49.437Z,14.64
2017-05-17T05:43:16.873Z,12.82
2017-05-17T05:45:44.268Z,12.48
2017-05-17T05:48:11.698Z,15.38
2017-05-17T05:50:39.180Z,13.52
2017-05-17T05:53:06.766Z,12.72
2017-05-17T05:55:34.406Z,13.54
2017-05-17T05:58:01.820Z,12.36
2017-05-17T06:00:29.214Z,12.18
2017-05-17T06:02:57.395Z,11.96
2017-05-17T06:05:24.978Z,12.86
2017-05-17T06:07:52.685Z,12.36
2017-05-17T06:10:20.090Z,12.84
2017-05-17T06:12:48.253Z,12.42
2017-05-17T06:15:15.640Z,13.22
2017-05-17T06:17:43.037Z,13.22
2017-05-17T06:20:10.452Z,14.16
2017-05-17T06:22:37.874Z,13.24
2017-05-17T06:25:05.286Z,13.48
2017-05-17T06:27:32.685Z,13.08
2017-05-17T06:30:00.892Z,14.48
2017-05-17T06:32:28.301Z,12.68
2017-05-17T06:34:55.717Z,13.46
2017-05-17T06:37:23.398Z,16.08
2017-05-17T06:39:50.798Z,14.74
2017-05-17T06:42:18.241Z,13.00
2017-05-17T06:44:46.384Z,12.42
2017-05-17T06:47:14.011Z,11.74
2017-05-17T06:49:41.427Z,12.38
2017-05-17T06:52:08.790Z,12.04
2017-05-17T06:54:36.965Z,11.82
2017-05-17T06:57:05.153Z,12.86
2017-05-17T06:59:32.559Z,13.46
2017-05-17T07:01:59.955Z,13.74
2017-05-17T07:04:27.409Z,11.74
2017-05-17T07:06:54.987Z,14.06
2017-05-17T07:09:22.354Z,11.96
2017-05-17T07:11:49.822Z,12.36
2017-05-17T07:14:17.497Z,12.08
2017-05-17T07:16:44.907Z,12.00
2017-05-17T07:19:12.558Z,12.34
2017-05-17T07:21:40.707Z,11.68
2017-05-17T07:24:08.303Z,12.60
2017-05-17T07:26:35.745Z,13.46
2017-05-17T07:29:03.886Z,13.20
2017-05-17T07:31:31.380Z,11.18
2017-05-17T07:33:58.798Z,12.32
2017-05-17T07:36:26.929Z,12.14
2017-05-17T07:38:54.287Z,12.22
2017-05-17T07:41:21.817Z,11.48
2017-05-17T07:43:49.977Z,12.02
2017-05-17T07:46:17.368Z,11.46
2017-05-17T07:48:44.762Z,11.54
2017-05-17T07:51:12.185Z,11.10
2017-05-17T07:53:39.845Z,12.02
2017-05-17T07:56:07.274Z,12.82
2017-05-17T07:58:34.767Z,11.76
2017-05-17T08:01:02.179Z,11.42
2017-05-17T08:03:30.320Z,12.30
2017-05-17T08:05:57.753Z,11.46
2017-05-17T08:08:25.183Z,10.72
2017-05-17T08:10:52.600Z,10.36
2017-05-17T08:13:20.013Z,9.44
2017-05-17T08:15:47.411Z,9.66
2017-05-17T08:18:14.826Z,8.82
2017-05-17T08:20:42.213Z,10.30
2017-05-17T08:23:10.026Z,8.90
2017-05-17T08:25:37.458Z,9.60
2017-05-17T08:28:04.848Z,8.92
2017-05-17T08:30:32.230Z,8.32
2017-05-17T08:32:59.642Z,8.00
2017-05-17T08:35:27.021Z,8.24
2017-05-17T08:37:54.439Z,7.86
2017-05-17T08:40:22.468Z,7.12
2017-05-17T08:42:49.840Z,8.02
2017-05-17T08:45:17.279Z,8.76
2017-05-17T08:47:44.678Z,9.24
2017-05-17T08:50:12.075Z,7.42
2017-05-17T08:52:40.791Z,9.10
2017-05-17T08:55:08.203Z,7.48
2017-05-17T08:57:35.619Z,7.36
2017-05-17T09:00:03.773Z,7.10
2017-05-17T09:02:31.257Z,8.98
2017-05-17T09:04:59.501Z,7.46
2017-05-17T09:07:26.880Z,7.32
2017-05-17T09:09:54.313Z,8.30
2017-05-17T09:12:21.881Z,7.80
2017-05-17T09:14:50.155Z,6.68
2017-05-17T09:17:17.707Z,5.38
2017-05-17T09:19:45.259Z,4.92
2017-05-17T09:22:13.337Z,5.38
2017-05-17T09:24:40.790Z,5.26
2017-05-17T09:27:08.212Z,5.44
2017-05-17T09:29:35.611Z,5.26
2017-05-17T09:32:03.051Z,4.68
2017-05-17T09:34:30.432Z,5.04
2017-05-17T09:36:58.554Z,4.58
2017-05-17T09:39:26.451Z,4.90
2017-05-17T09:41:55.071Z,5.60
2017-05-17T09:44:23.182Z,5.20
2017-05-17T09:46:50.677Z,5.74
2017-05-17T09:49:18.137Z,6.32
2017-05-17T09:51:45.517Z,5.82
2017-05-17T09:54:13.085Z,5.98
2017-05-17T09:56:41.414Z,6.00
2017-05-17T09:59:08.826Z,7.04
2017-05-17T10:01:36.251Z,6.06
2017-05-17T10:04:03.632Z,6.06
2017-05-17T10:06:31.038Z,6.12
2017-05-17T10:08:58.477Z,5.82
2017-05-17T10:11:25.877Z,6.20
2017-05-17T10:13:53.242Z,4.84
2017-05-17T10:16:20.629Z,3.82
2017-05-17T10:18:48.277Z,3.50
2017-05-17T10:21:16.393Z,3.92
2017-05-17T10:23:43.821Z,4.04
2017-05-17T10:26:11.249Z,3.22
2017-05-17T10:28:38.751Z,3.80
2017-05-17T10:31:06.464Z,3.24
2017-05-17T10:33:35.658Z,3.30
2017-05-17T10:36:03.838Z,3.88
2017-05-17T10:38:32.561Z,3.72
2017-05-17T10:41:00.103Z,3.48
2017-05-17T10:43:28.518Z,3.12
2017-05-17T10:45:56.107Z,4.12
2017-05-17T10:48:23.573Z,3.40
2017-05-17T10:50:51.703Z,2.92
2017-05-17T10:53:19.106Z,2.72
2017-05-17T10:55:47.234Z,3.42
2017-05-17T10:58:15.329Z,2.62
2017-05-17T11:00:42.755Z,2.94
2017-05-17T11:03:10.287Z,3.20
2017-05-17T11:05:37.641Z,3.30
2017-05-17T11:08:05.057Z,3.00
2017-05-17T11:10:32.418Z,3.76
2017-05-17T11:12:59.944Z,3.24
2017-05-17T11:15:27.915Z,3.50
2017-05-17T11:17:55.424Z,4.24
2017-05-17T11:20:22.823Z,3.48
2017-05-17T11:22:50.254Z,4.00
2017-05-17T11:25:17.793Z,4.34
2017-05-17T11:27:45.162Z,3.62
2017-05-17T11:30:12.636Z,3.94
2017-05-17T11:32:40.053Z,3.58
2017-05-17T11:35:08.406Z,3.34
2017-05-17T11:37:35.826Z,4.04
2017-05-17T11:40:03.322Z,3.52
2017-05-17T11:42:31.176Z,3.82
2017-05-17T11:44:58.603Z,3.40
2017-05-17T11:47:26.003Z,3.14
2017-05-17T11:49:54.188Z,3.48
2017-05-17T11:52:21.797Z,2.66
2017-05-17T11:54:49.425Z,3.28
2017-05-17T11:57:16.944Z,3.16
2017-05-17T11:59:44.422Z,3.36
2017-05-17T12:02:11.971Z,3.40
2017-05-17T12:04:39.998Z,4.00
2017-05-17T12:07:07.449Z,4.48
2017-05-17T12:09:35.255Z,5.02
2017-05-17T12:12:02.917Z,4.78
2017-05-17T12:14:30.472Z,4.64
2017-05-17T12:16:58.657Z,3.54
2017-05-17T12:19:27.498Z,3.48
2017-05-17T12:21:54.905Z,3.46
2017-05-17T12:24:23.068Z,3.28
2017-05-17T12:26:51.246Z,3.44
2017-05-17T12:29:19.437Z,4.36
2017-05-17T12:31:46.821Z,4.50
2017-05-17T12:34:14.410Z,4.48
2017-05-17T12:36:41.953Z,4.02
2017-05-17T12:39:09.329Z,3.58
2017-05-17T12:41:36.732Z,3.40
2017-05-17T12:44:04.178Z,3.78
2017-05-17T12:46:32.010Z,3.76
2017-05-17T12:48:59.399Z,3.80
2017-05-17T12:51:27.943Z,3.94
2017-05-17T12:53:55.631Z,4.70
2017-05-17T12:56:23.802Z,4.72
2017-05-17T12:58:51.359Z,3.78
2017-05-17T13:01:19.699Z,4.70
2017-05-17T13:03:50.023Z,5.48
2017-05-17T13:06:17.474Z,5.68
2017-05-17T13:08:45.194Z,5.26
2017-05-17T13:11:13.242Z,4.50
2017-05-17T13:13:40.757Z,5.04
2017-05-17T13:16:08.128Z,4.76
2017-05-17T13:18:36.705Z,4.88
2017-05-17T13:21:04.989Z,5.08
2017-05-17T13:23:34.717Z,4.92
2017-05-17T13:26:02.147Z,5.18
2017-05-17T13:28:29.848Z,5.50
2017-05-17T13:30:57.767Z,6.02
2017-05-17T13:33:25.442Z,5.62
2017-05-17T13:35:53.043Z,6.02
2017-05-17T13:38:20.733Z,5.42
2017-05-17T13:40:48.332Z,6.08
2017-05-17T13:43:15.906Z,5.90
2017-05-17T13:45:44.074Z,6.26
2017-05-17T13:48:11.776Z,6.20
2017-05-17T13:50:39.527Z,5.34
2017-05-17T13:53:07.037Z,5.88
2017-05-17T13:55:35.715Z,6.36
2017-05-17T13:58:03.189Z,6.26
2017-05-17T14:00:31.251Z,7.26
2017-05-17T14:02:58.624Z,5.94
2017-05-17T14:05:26.050Z,5.12
2017-05-17T14:07:53.924Z,5.48
2017-05-17T14:10:21.411Z,6.18
2017-05-17T14:12:49.614Z,5.70
2017-05-17T14:15:17.622Z,6.86
2017-05-17T14:17:45.025Z,6.14
2017-05-17T14:20:12.523Z,5.70
2017-05-17T14:22:40.065Z,5.22
2017-05-17T14:25:07.889Z,5.60
2017-05-17T14:27:36.343Z,5.72
2017-05-17T14:30:03.949Z,5.36
2017-05-17T14:32:31.984Z,6.00
2017-05-17T14:35:00.317Z,6.16
2017-05-17T14:37:27.928Z,5.98
2017-05-17T14:39:56.734Z,5.04
2017-05-17T14:42:24.430Z,5.30
2017-05-17T14:44:51.875Z,5.18
2017-05-17T14:47:19.366Z,5.86
2017-05-17T14:49:46.829Z,6.56
2017-05-17T14:52:14.546Z,5.30
2017-05-17T14:54:42.918Z,6.00
2017-05-17T14:57:11.141Z,5.18
2017-05-17T14:59:38.626Z,5.72
2017-05-17T15:02:06.478Z,5.60
2017-05-17T15:04:35.098Z,5.64
2017-05-17T15:07:04.383Z,5.94
2017-05-17T15:09:31.821Z,5.90
2017-05-17T15:11:59.288Z,5.70
2017-05-17T15:14:26.968Z,5.40
2017-05-17T15:16:55.033Z,6.28
2017-05-17T15:19:23.304Z,5.50
2017-05-17T15:21:50.791Z,5.40
2017-05-17T15:24:18.304Z,6.42
2017-05-17T15:26:45.920Z,6.46
2017-05-17T15:29:13.339Z,6.48
2017-05-17T15:31:40.785Z,6.56
2017-05-17T15:34:09.103Z,6.50
2017-05-17T15:36:36.673Z,6.14
2017-05-17T15:39:04.226Z,5.90
2017-05-17T15:41:32.244Z,6.16
2017-05-17T15:44:00.440Z,6.10
2017-05-17T15:46:28.603Z,6.78
2017-05-17T15:48:57.021Z,6.20
2017-05-17T15:51:24.536Z,6.74
2017-05-17T15:53:52.170Z,5.40
2017-05-17T15:56:19.813Z,5.90
2017-05-17T15:58:47.439Z,5.50
2017-05-17T16:01:15.104Z,6.50
2017-05-17T16:03:42.634Z,6.12
2017-05-17T16:06:10.946Z,5.90
2017-05-17T16:08:38.489Z,5.38
2017-05-17T16:11:05.985Z,5.94
2017-05-17T16:13:33.870Z,5.68
2017-05-17T16:16:01.348Z,5.98
2017-05-17T16:18:28.955Z,5.66
2017-05-17T16:20:56.923Z,7.94
2017-05-17T16:23:24.331Z,5.92
2017-05-17T16:25:52.499Z,7.10
2017-05-17T16:28:20.023Z,6.26
2017-05-17T16:30:47.757Z,5.56
2017-05-17T16:33:15.570Z,5.92
2017-05-17T16:35:43.194Z,5.64
2017-05-17T16:38:11.319Z,5.44
2017-05-17T16:40:39.538Z,4.90
2017-05-17T16:43:07.118Z,6.00
2017-05-17T16:45:34.674Z,5.26
2017-05-17T16:48:02.330Z,5.22
2017-05-17T16:50:29.820Z,4.94
2017-05-17T16:52:57.812Z,5.74
2017-05-17T16:55:26.558Z,5.50
2017-05-17T16:57:54.586Z,5.88
2017-05-17T17:00:22.480Z,4.20
2017-05-17T17:02:50.216Z,5.50
2017-05-17T17:05:18.567Z,6.08
2017-05-17T17:07:46.648Z,6.12
2017-05-17T17:10:14.132Z,6.08
2017-05-17T17:12:41.544Z,5.86
2017-05-17T17:15:08.992Z,5.70
2017-05-17T17:17:36.754Z,5.80
2017-05-17T17:20:04.294Z,5.34
2017-05-17T17:22:32.633Z,5.60
2017-05-17T17:25:00.869Z,4.96
2017-05-17T17:27:28.787Z,6.02
2017-05-17T17:29:56.506Z,5.22
2017-05-17T17:32:24.400Z,4.90
2017-05-17T17:34:51.927Z,4.82
2017-05-17T17:37:19.475Z,5.38
2017-05-17T17:39:47.453Z,5.32
2017-05-17T17:42:15.209Z,5.78
2017-05-17T17:44:42.792Z,6.54
2017-05-17T17:47:10.276Z,6.20
2017-05-17T17:49:38.094Z,5.24
2017-05-17T17:52:05.621Z,6.24
2017-05-17T17:54:33.277Z,5.94
2017-05-17T17:57:00.697Z,8.76
2017-05-17T17:59:28.186Z,6.36
2017-05-17T18:01:55.784Z,5.86
2017-05-17T18:04:23.411Z,7.60
2017-05-17T18:06:50.820Z,6.58
2017-05-17T18:09:18.302Z,7.74
2017-05-17T18:11:45.739Z,6.08
2017-05-17T18:14:13.240Z,7.34
2017-05-17T18:16:40.698Z,8.78
2017-05-17T18:19:08.466Z,10.30
2017-05-17T18:21:35.957Z,16.32
2017-05-17T18:24:04.170Z,11.80
2017-05-17T18:26:32.221Z,10.16
2017-05-17T18:29:00.576Z,8.08
2017-05-17T18:31:28.229Z,9.60
2017-05-17T18:33:56.135Z,9.28
2017-05-17T18:36:23.991Z,8.42
2017-05-17T18:38:52.147Z,8.00
2017-05-17T18:41:20.045Z,8.26
2017-05-17T18:43:48.290Z,9.56
2017-05-17T18:46:16.246Z,9.22
2017-05-17T18:48:44.152Z,7.46
2017-05-17T18:51:11.737Z,8.16
2017-05-17T18:53:39.311Z,12.18
2017-05-17T18:56:07.708Z,11.00
2017-05-17T18:58:35.173Z,9.16
2017-05-17T19:01:02.722Z,9.96
2017-05-17T19:03:30.466Z,8.74
2017-05-17T19:05:58.637Z,7.54
2017-05-17T19:08:26.340Z,7.70
2017-05-17T19:10:54.051Z,10.30
2017-05-17T19:13:21.579Z,14.30
2017-05-17T19:15:49.931Z,12.88
2017-05-17T19:18:18.346Z,14.04
2017-05-17T19:20:45.883Z,12.20
2017-05-17T19:23:13.341Z,10.68
2017-05-17T19:25:40.764Z,12.62
2017-05-17T19:28:08.444Z,11.80
2017-05-17T19:30:36.026Z,11.30
2017-05-17T19:33:03.598Z,13.80
2017-05-17T19:35:31.517Z,12.34
2017-05-17T19:37:58.961Z,11.44
2017-05-17T19:40:26.907Z,13.94
2017-05-17T19:42:54.543Z,15.22
2017-05-17T19:45:22.013Z,12.30
2017-05-17T19:47:49.933Z,10.68
2017-05-17T19:50:17.367Z,10.18
2017-05-17T19:52:45.220Z,9.28
2017-05-17T19:55:12.866Z,10.54
2017-05-17T19:57:40.842Z,14.30
2017-05-17T20:00:08.515Z,10.44
2017-05-17T20:02:36.030Z,13.00
2017-05-17T20:05:04.219Z,28.36
2017-05-17T20:07:32.429Z,42.84
2017-05-17T20:10:00.245Z,15.04
2017-05-17T20:12:28.479Z,9.90
2017-05-17T20:14:55.964Z,10.88
2017-05-17T20:17:24.186Z,11.14
2017-05-17T20:19:51.621Z,13.22
2017-05-17T20:22:19.856Z,9.46
2017-05-17T20:24:47.739Z,11.12
2017-05-17T20:27:15.415Z,11.32
2017-05-17T20:29:43.659Z,11.38
2017-05-17T20:32:11.261Z,11.40
2017-05-17T20:34:39.023Z,12.62
2017-05-17T20:37:06.454Z,9.52
2017-05-17T20:39:34.337Z,14.94
2017-05-17T20:42:02.752Z,14.62
2017-05-17T20:44:30.193Z,14.58
2017-05-17T20:46:57.827Z,12.18
2017-05-17T20:49:26.282Z,18.46
2017-05-17T20:51:54.047Z,16.18
2017-05-17T20:54:21.755Z,13.14
2017-05-17T20:56:49.884Z,13.62
2017-05-17T20:59:18.027Z,12.94
2017-05-17T21:01:48.112Z,11.66
2017-05-17T21:04:17.112Z,11.62
2017-05-17T21:06:46.358Z,11.36
2017-05-17T21:09:15.252Z,11.22
2017-05-17T21:11:44.708Z,12.48
2017-05-17T21:14:13.324Z,12.14
2017-05-17T21:16:42.498Z,11.42
2017-05-17T21:19:11.136Z,11.90
2017-05-17T21:21:38.657Z,11.46
2017-05-17T21:24:06.408Z,11.56
2017-05-17T21:26:33.865Z,10.14
2017-05-17T21:29:01.422Z,9.64
2017-05-17T21:31:29.007Z,10.02
2017-05-17T21:33:56.443Z,10.20
2017-05-17T21:36:23.893Z,9.50
2017-05-17T21:38:51.448Z,9.72
2017-05-17T21:41:20.165Z,9.90
2017-05-17T21:43:47.602Z,10.78
2017-05-17T21:46:14.986Z,10.18
2017-05-17T21:48:42.858Z,11.66
2017-05-17T21:51:10.393Z,10.76
2017-05-17T21:53:37.817Z,10.38
2017-05-17T21:56:05.447Z,12.02
2017-05-17T21:58:33.698Z,11.32
2017-05-17T22:01:01.078Z,11.52
2017-05-17T22:03:28.513Z,11.88
2017-05-17T22:05:55.860Z,10.04
2017-05-17T22:08:23.186Z,10.42
2017-05-17T22:10:51.238Z,11.00
2017-05-17T22:13:18.880Z,10.52
2017-05-17T22:15:46.895Z,11.38
2017-05-17T22:18:14.208Z,10.52
2017-05-17T22:20:42.715Z,11.24
2017-05-17T22:23:11.034Z,10.82
2017-05-17T22:25:39.534Z,10.87
2017-05-17T22:28:07.059Z,10.77
2017-05-17T22:30:34.484Z,10.05
2017-05-17T22:33:02.255Z,10.43
2017-05-17T22:35:37.376Z,10.92
2017-05-17T22:38:04.800Z,10.92
2017-05-17T22:40:33.487Z,11.17
2017-05-17T22:43:01.164Z,10.35
2017-05-17T22:45:29.319Z,10.60
2017-05-17T22:47:57.515Z,12.43
2017-05-17T22:50:25.010Z,11.02
2017-05-17T22:52:52.414Z,10.78
2017-05-17T22:55:20.739Z,11.15
2017-05-17T22:57:48.197Z,10.07
2017-05-17T23:00:15.642Z,10.57
2017-05-17T23:02:43.302Z,11.30
2017-05-17T23:05:10.922Z,11.68
2017-05-17T23:07:39.243Z,10.67
2017-05-17T23:10:06.640Z,11.08
2017-05-17T23:12:34.259Z,12.30
2017-05-17T23:15:01.696Z,10.70
2017-05-17T23:17:29.311Z,11.32
2017-05-17T23:19:56.834Z,11.78
2017-05-17T23:22:24.366Z,11.25
2017-05-17T23:24:51.809Z,11.18
2017-05-17T23:27:19.976Z,11.87
2017-05-17T23:29:47.363Z,10.75
2017-05-17T23:32:14.768Z,10.38
2017-05-17T23:34:42.225Z,10.43
2017-05-17T23:37:09.625Z,10.77
2017-05-17T23:39:37.773Z,10.97
2017-05-17T23:42:05.610Z,10.17
2017-05-17T23:44:33.177Z,10.28
2017-05-17T23:47:02.227Z,11.08
2017-05-17T23:49:29.670Z,10.63
2017-05-17T23:51:57.056Z,10.93
2017-05-17T23:54:25.102Z,10.43
2017-05-17T23:56:52.561Z,10.98
2017-05-17T23:59:20.113Z,11.73
